createdAt,value
2019-02-27T00:00:43.934Z,36.23
2019-02-27T00:03:09.487Z,35.73
2019-02-27T00:05:38.820Z,35.03
2019-02-27T00:08:03.341Z,34.43
2019-02-27T00:10:30.247Z,35.77
2019-02-27T00:12:57.833Z,35.50
2019-02-27T00:15:24.726Z,34.37
2019-02-27T00:17:52.125Z,34.50
2019-02-27T00:20:18.619Z,34.13
2019-02-27T00:22:47.849Z,36.60
2019-02-27T00:25:12.592Z,35.67
2019-02-27T00:27:39.484Z,34.50
2019-02-27T00:30:06.538Z,36.40
2019-02-27T00:32:33.476Z,33.97
2019-02-27T00:35:00.412Z,36.80
2019-02-27T00:37:27.331Z,35.60
2019-02-27T00:39:54.250Z,36.07
2019-02-27T00:42:23.031Z,36.63
2019-02-27T00:44:48.143Z,36.40
2019-02-27T00:47:17.085Z,35.60
2019-02-27T00:49:42.078Z,36.63
2019-02-27T00:52:08.961Z,36.30
2019-02-27T00:54:35.856Z,35.37
2019-02-27T00:57:02.791Z,35.90
2019-02-27T00:59:32.904Z,36.43
2019-02-27T01:01:56.680Z,36.37
2019-02-27T01:04:23.590Z,36.73
2019-02-27T01:06:50.534Z,35.63
2019-02-27T01:09:17.475Z,36.90
2019-02-27T01:11:44.492Z,35.50
2019-02-27T01:14:11.406Z,36.20
2019-02-27T01:16:38.418Z,34.47
2019-02-27T01:19:05.433Z,35.37
2019-02-27T01:21:32.311Z,35.63
2019-02-27T01:23:59.265Z,35.80
2019-02-27T01:26:30.624Z,35.93
2019-02-27T01:28:53.117Z,38.13
2019-02-27T01:31:21.929Z,36.60
2019-02-27T01:33:46.974Z,33.83
2019-02-27T01:36:13.872Z,35.93
2019-02-27T01:39:12.038Z,36.33
2019-02-27T01:41:38.833Z,34.30
2019-02-27T01:44:05.785Z,37.43
2019-02-27T01:46:32.700Z,34.70
2019-02-27T01:48:59.614Z,34.30
2019-02-27T01:51:28.197Z,34.80
2019-02-27T01:53:53.508Z,34.93
2019-02-27T01:56:20.420Z,35.23
2019-02-27T01:58:47.322Z,35.20
2019-02-27T02:01:14.242Z,34.70
2019-02-27T02:03:41.529Z,33.63
2019-02-27T02:06:08.766Z,35.27
2019-02-27T02:08:35.711Z,36.00
2019-02-27T02:11:02.650Z,33.97
2019-02-27T02:13:34.449Z,32.23
2019-02-27T02:16:11.953Z,35.23
2019-02-27T02:21:56.385Z,33.40
2019-02-27T02:25:37.041Z,33.87
2019-02-27T02:28:23.774Z,34.87
2019-02-27T02:31:05.365Z,34.63
2019-02-27T02:33:41.354Z,32.67
2019-02-27T02:37:23.392Z,34.03
2019-02-27T02:39:56.609Z,33.63
2019-02-27T02:42:36.639Z,31.60
2019-02-27T02:45:32.830Z,34.20
2019-02-27T02:48:27.879Z,33.30
2019-02-27T02:51:10.078Z,34.13
2019-02-27T02:53:50.295Z,34.57
2019-02-27T02:58:29.271Z,32.67
2019-02-27T03:01:05.114Z,33.53
2019-02-27T03:03:42.701Z,32.33
2019-02-27T03:06:21.248Z,33.60
2019-02-27T03:08:57.460Z,34.97
2019-02-27T03:11:44.988Z,33.73
2019-02-27T03:14:25.033Z,34.60
2019-02-27T03:17:32.708Z,34.50
2019-02-27T03:22:13.709Z,36.60
2019-02-27T03:25:06.307Z,33.00
2019-02-27T03:27:57.470Z,35.07
2019-02-27T03:30:50.075Z,34.90
2019-02-27T03:33:31.289Z,34.73
2019-02-27T03:36:28.274Z,36.77
2019-02-27T03:39:04.667Z,36.10
2019-02-27T03:42:45.491Z,35.73
2019-02-27T03:45:30.634Z,35.47
2019-02-27T03:48:02.027Z,37.60
2019-02-27T03:50:37.281Z,36.43
2019-02-27T03:53:24.051Z,36.50
2019-02-27T03:58:51.884Z,36.50
2019-02-27T04:01:30.506Z,36.30
2019-02-27T04:04:22.619Z,35.83
2019-02-27T04:07:00.109Z,37.73
2019-02-27T04:09:27.030Z,36.30
2019-02-27T04:11:53.955Z,35.70
2019-02-27T04:14:25.972Z,36.03
2019-02-27T04:16:52.862Z,35.33
2019-02-27T04:19:19.788Z,36.87
2019-02-27T04:21:46.707Z,35.60
2019-02-27T04:24:13.625Z,36.67
2019-02-27T04:26:41.895Z,35.13
2019-02-27T04:29:08.535Z,37.60
2019-02-27T04:31:34.463Z,35.03
2019-02-27T04:34:01.408Z,36.17
2019-02-27T04:36:28.310Z,34.70
2019-02-27T04:38:55.214Z,35.20
2019-02-27T04:46:15.827Z,32.63
2019-02-27T04:48:42.787Z,33.63
2019-02-27T04:51:09.710Z,37.03
2019-02-27T04:53:36.759Z,33.87
2019-02-27T04:56:03.684Z,33.83
2019-02-27T04:58:31.347Z,33.87
2019-02-27T05:00:59.354Z,32.80
2019-02-27T05:03:25.835Z,32.83
2019-02-27T05:05:51.586Z,33.27
2019-02-27T05:08:18.498Z,33.10
2019-02-27T05:10:45.406Z,33.97
2019-02-27T05:13:12.336Z,33.37
2019-02-27T05:15:39.689Z,32.50
2019-02-27T05:18:06.324Z,32.70
2019-02-27T05:20:33.277Z,34.70
2019-02-27T05:23:00.943Z,34.57
2019-02-27T05:25:27.213Z,33.43
2019-02-27T05:27:54.183Z,33.93
2019-02-27T05:30:21.158Z,32.77
2019-02-27T05:32:48.100Z,34.20
2019-02-27T05:35:15.069Z,34.40
2019-02-27T05:37:42.082Z,33.60
2019-02-27T05:40:09.349Z,35.00
2019-02-27T05:42:38.811Z,34.73
2019-02-27T05:45:03.953Z,34.10
2019-02-27T05:47:30.848Z,34.80
2019-02-27T05:49:57.994Z,36.33
2019-02-27T05:52:24.734Z,35.13
2019-02-27T05:54:51.697Z,36.73
2019-02-27T05:57:21.055Z,37.67
2019-02-27T05:59:45.592Z,36.97
2019-02-27T06:02:12.552Z,37.07
2019-02-27T06:04:39.489Z,35.87
2019-02-27T06:07:06.472Z,35.57
2019-02-27T06:09:33.408Z,32.87
2019-02-27T06:12:00.373Z,33.27
2019-02-27T06:14:27.346Z,32.93
2019-02-27T06:16:55.479Z,38.37
2019-02-27T06:19:22.530Z,35.17
2019-02-27T06:21:49.448Z,33.10
2019-02-27T06:24:16.451Z,32.47
2019-02-27T06:26:43.397Z,32.63
2019-02-27T06:29:10.404Z,31.13
2019-02-27T06:31:39.444Z,32.67
2019-02-27T06:34:04.500Z,32.53
2019-02-27T06:36:31.502Z,31.10
2019-02-27T06:39:00.305Z,31.47
2019-02-27T06:41:25.489Z,31.27
2019-02-27T06:43:52.434Z,32.53
2019-02-27T06:46:19.941Z,32.77
2019-02-27T06:48:46.409Z,32.20
2019-02-27T06:51:14.110Z,30.77
2019-02-27T06:53:41.083Z,31.40
2019-02-27T06:56:08.093Z,31.37
2019-02-27T06:58:35.037Z,30.13
2019-02-27T07:01:02.022Z,30.63
2019-02-27T07:03:29.446Z,29.67
2019-02-27T07:05:55.992Z,31.00
2019-02-27T07:08:22.966Z,31.67
2019-02-27T07:10:50.083Z,31.57
2019-02-27T07:13:16.981Z,29.53
2019-02-27T07:15:47.794Z,28.80
2019-02-27T07:18:11.927Z,31.53
2019-02-27T07:20:38.052Z,26.77
2019-02-27T07:23:04.987Z,26.13
2019-02-27T07:25:31.927Z,25.73
2019-02-27T07:27:58.892Z,24.53
2019-02-27T07:30:25.882Z,25.23
2019-02-27T07:32:53.044Z,24.37
2019-02-27T07:35:19.966Z,23.60
2019-02-27T07:37:48.201Z,23.43
2019-02-27T07:40:14.365Z,22.47
2019-02-27T07:42:41.311Z,22.10
2019-02-27T07:45:10.629Z,22.60
2019-02-27T07:47:37.228Z,23.70
2019-02-27T07:50:06.347Z,22.57
2019-02-27T07:52:32.449Z,24.07
2019-02-27T07:54:58.849Z,24.20
2019-02-27T07:57:26.303Z,22.57
2019-02-27T07:59:53.417Z,23.07
2019-02-27T08:02:20.581Z,22.83
2019-02-27T08:04:47.538Z,22.23
2019-02-27T08:07:14.553Z,24.07
2019-02-27T08:09:41.493Z,23.13
2019-02-27T08:12:08.510Z,22.63
2019-02-27T08:14:37.227Z,22.80
2019-02-27T08:17:02.536Z,22.67
2019-02-27T08:19:29.490Z,22.67
2019-02-27T08:21:56.459Z,24.83
2019-02-27T08:24:24.934Z,23.77
2019-02-27T08:26:50.591Z,23.00
2019-02-27T08:29:17.683Z,22.47
2019-02-27T08:31:44.675Z,22.83
2019-02-27T08:34:11.697Z,23.60
2019-02-27T08:36:38.773Z,23.77
2019-02-27T08:39:05.792Z,22.70
2019-02-27T08:41:32.856Z,25.27
2019-02-27T08:43:59.809Z,23.43
2019-02-27T08:46:26.788Z,22.50
2019-02-27T08:48:53.773Z,23.60
2019-02-27T08:51:20.750Z,23.10
2019-02-27T08:53:47.803Z,23.90
2019-02-27T08:56:14.802Z,23.57
2019-02-27T08:58:41.807Z,23.10
2019-02-27T09:01:10.312Z,22.30
2019-02-27T09:03:37.636Z,24.13
2019-02-27T09:06:04.610Z,22.43
2019-02-27T09:08:31.579Z,29.23
2019-02-27T09:10:58.559Z,28.33
2019-02-27T09:13:25.641Z,23.50
2019-02-27T09:15:52.615Z,23.53
2019-02-27T09:18:19.596Z,24.33
2019-02-27T09:20:46.607Z,22.80
2019-02-27T09:23:14.532Z,24.17
2019-02-27T09:25:42.374Z,24.93
2019-02-27T09:28:09.902Z,28.43
2019-02-27T09:30:35.991Z,25.97
2019-02-27T09:33:03.837Z,23.03
2019-02-27T09:35:34.522Z,25.37
2019-02-27T09:37:57.860Z,21.50
2019-02-27T09:40:24.972Z,22.17
2019-02-27T09:42:53.053Z,22.27
2019-02-27T09:45:23.418Z,22.47
2019-02-27T09:47:50.431Z,21.23
2019-02-27T09:50:24.664Z,20.03
2019-02-27T09:52:51.746Z,19.60
2019-02-27T09:55:20.409Z,20.40
2019-02-27T09:57:45.715Z,20.90
2019-02-27T10:00:26.610Z,20.63
2019-02-27T10:02:51.918Z,19.00
2019-02-27T10:05:18.969Z,18.67
2019-02-27T10:07:48.428Z,19.70
2019-02-27T10:10:13.157Z,19.13
2019-02-27T10:12:40.193Z,18.23
2019-02-27T10:15:07.131Z,19.57
2019-02-27T10:17:34.058Z,18.60
2019-02-27T10:20:02.455Z,20.00
2019-02-27T10:22:28.104Z,16.90
2019-02-27T10:24:55.682Z,18.73
2019-02-27T10:27:28.416Z,18.90
2019-02-27T10:29:50.146Z,18.33
2019-02-27T10:32:17.118Z,18.30
2019-02-27T10:34:44.576Z,18.53
2019-02-27T10:37:13.315Z,18.77
2019-02-27T10:39:38.827Z,17.80
2019-02-27T10:42:05.935Z,19.37
2019-02-27T10:44:33.965Z,19.53
2019-02-27T10:47:00.713Z,18.53
2019-02-27T10:49:27.274Z,18.87
2019-02-27T10:51:54.254Z,17.47
2019-02-27T10:54:21.209Z,18.30
2019-02-27T10:56:48.185Z,19.00
2019-02-27T10:59:15.151Z,21.97
2019-02-27T11:01:42.175Z,18.30
2019-02-27T11:04:09.108Z,17.77
2019-02-27T11:06:37.730Z,17.07
2019-02-27T11:09:04.656Z,17.33
2019-02-27T11:11:31.268Z,18.07
2019-02-27T11:13:58.208Z,17.33
2019-02-27T11:16:25.200Z,17.40
2019-02-27T11:18:52.190Z,16.60
2019-02-27T11:21:19.208Z,16.10
2019-02-27T11:23:46.278Z,14.70
2019-02-27T11:26:13.330Z,16.50
2019-02-27T11:28:42.340Z,14.97
2019-02-27T11:31:08.419Z,15.10
2019-02-27T11:33:34.383Z,14.17
2019-02-27T11:36:03.235Z,15.63
2019-02-27T11:38:28.506Z,15.43
2019-02-27T11:40:55.463Z,15.53
2019-02-27T11:43:22.558Z,14.10
2019-02-27T11:45:49.562Z,12.93
2019-02-27T11:48:17.259Z,15.17
2019-02-27T11:50:44.362Z,12.97
2019-02-27T11:53:11.309Z,14.27
2019-02-27T11:55:38.257Z,12.77
2019-02-27T11:58:05.591Z,13.70
2019-02-27T12:00:32.679Z,14.63
2019-02-27T12:02:59.711Z,13.50
2019-02-27T12:05:30.312Z,13.47
2019-02-27T12:07:53.904Z,12.93
2019-02-27T12:10:22.075Z,14.47
2019-02-27T12:12:49.092Z,13.97
2019-02-27T12:15:17.425Z,13.23
2019-02-27T12:17:44.463Z,13.63
2019-02-27T12:20:11.902Z,13.30
2019-02-27T12:22:39.464Z,14.33
2019-02-27T12:25:07.630Z,14.40
2019-02-27T12:27:48.293Z,14.07
2019-02-27T12:30:02.760Z,14.40
2019-02-27T12:32:28.637Z,14.23
2019-02-27T12:34:55.653Z,13.40
2019-02-27T12:37:28.047Z,12.97
2019-02-27T12:39:50.241Z,12.13
2019-02-27T12:42:16.796Z,12.63
2019-02-27T12:44:43.770Z,13.60
2019-02-27T12:47:11.514Z,13.77
2019-02-27T12:49:38.480Z,13.33
2019-02-27T12:52:05.408Z,13.47
2019-02-27T12:54:32.398Z,13.33
2019-02-27T12:56:59.469Z,14.00
2019-02-27T12:59:26.410Z,12.60
2019-02-27T13:01:53.328Z,12.20
2019-02-27T13:04:20.311Z,11.13
2019-02-27T13:06:47.394Z,9.87
2019-02-27T13:09:14.399Z,10.57
2019-02-27T13:11:41.941Z,10.33
2019-02-27T13:14:08.357Z,11.07
2019-02-27T13:16:35.277Z,11.87
2019-02-27T13:19:06.352Z,11.00
2019-02-27T13:21:29.216Z,13.57
2019-02-27T13:23:56.214Z,11.33
2019-02-27T13:26:23.195Z,10.40
2019-02-27T13:28:50.230Z,10.43
2019-02-27T13:31:17.410Z,10.37
2019-02-27T13:33:44.180Z,11.05
2019-02-27T13:36:12.763Z,9.60
2019-02-27T13:38:38.138Z,9.57
2019-02-27T13:41:07.732Z,9.07
2019-02-27T13:43:32.184Z,9.63
2019-02-27T13:45:59.096Z,10.80
2019-02-27T13:48:26.075Z,16.93
2019-02-27T13:50:56.667Z,12.03
2019-02-27T13:53:25.747Z,16.70
2019-02-27T13:55:48.872Z,15.53
2019-02-27T13:58:15.498Z,14.83
2019-02-27T14:00:43.220Z,13.03
2019-02-27T14:03:12.779Z,25.33
2019-02-27T14:05:37.762Z,15.03
2019-02-27T14:08:04.749Z,14.05
2019-02-27T14:10:32.341Z,15.33
2019-02-27T14:12:59.437Z,11.00
2019-02-27T14:15:27.218Z,10.57
2019-02-27T14:17:53.541Z,9.40
2019-02-27T14:20:20.700Z,9.43
2019-02-27T14:22:47.753Z,27.10
2019-02-27T14:25:16.814Z,14.13
2019-02-27T14:27:47.268Z,29.93
2019-02-27T14:30:14.786Z,22.73
2019-02-27T14:32:41.798Z,10.13
2019-02-27T14:35:09.810Z,11.70
2019-02-27T14:37:38.039Z,8.20
2019-02-27T14:40:07.758Z,9.60
2019-02-27T14:42:35.447Z,10.10
2019-02-27T14:45:05.672Z,33.33
2019-02-27T14:47:29.459Z,23.02
2019-02-27T14:49:59.344Z,21.83
2019-02-27T14:52:23.442Z,15.78
2019-02-27T14:54:50.638Z,13.58
2019-02-27T14:57:17.649Z,85.70
2019-02-27T14:59:45.294Z,20.35
2019-02-27T15:02:12.334Z,15.53
2019-02-27T15:04:39.329Z,10.63
2019-02-27T15:07:06.293Z,8.88
2019-02-27T15:09:36.504Z,8.63
2019-02-27T15:12:02.851Z,7.95
2019-02-27T15:14:31.037Z,9.03
2019-02-27T15:16:57.242Z,10.43
2019-02-27T15:19:26.849Z,11.78
2019-02-27T15:21:51.317Z,11.33
2019-02-27T15:24:18.334Z,11.67
2019-02-27T15:26:48.127Z,10.32
2019-02-27T15:29:12.486Z,9.67
2019-02-27T15:31:39.981Z,10.58
2019-02-27T15:34:11.733Z,9.65
2019-02-27T15:36:34.315Z,10.83
2019-02-27T15:39:01.264Z,10.80
2019-02-27T15:41:28.263Z,9.90
2019-02-27T15:44:00.233Z,10.43
2019-02-27T15:46:22.613Z,11.47
2019-02-27T15:48:49.686Z,13.43
2019-02-27T15:51:18.405Z,12.17
2019-02-27T15:53:49.634Z,13.83
2019-02-27T15:56:11.385Z,14.23
2019-02-27T15:58:38.387Z,13.43
2019-02-27T16:01:05.393Z,14.97
2019-02-27T16:03:32.394Z,12.30
2019-02-27T16:06:05.210Z,12.63
2019-02-27T16:08:26.441Z,15.63
2019-02-27T16:10:55.118Z,11.53
2019-02-27T16:13:20.503Z,10.70
2019-02-27T16:15:48.485Z,12.83
2019-02-27T16:18:14.540Z,41.67
2019-02-27T16:20:41.489Z,16.60
2019-02-27T16:23:08.426Z,31.87
2019-02-27T16:25:35.727Z,34.63
2019-02-27T16:28:02.755Z,14.40
2019-02-27T16:30:32.501Z,27.07
2019-02-27T16:32:57.027Z,25.20
2019-02-27T16:35:24.031Z,12.67
2019-02-27T16:37:56.595Z,21.03
2019-02-27T16:40:18.850Z,21.42
2019-02-27T16:42:45.346Z,18.30
2019-02-27T16:45:13.626Z,23.63
2019-02-27T16:47:41.392Z,16.60
2019-02-27T16:50:10.906Z,23.73
2019-02-27T16:52:41.731Z,26.23
2019-02-27T16:55:06.500Z,20.87
2019-02-27T16:57:33.521Z,19.80
2019-02-27T17:00:00.511Z,15.20
2019-02-27T17:02:27.497Z,15.70
2019-02-27T17:04:54.456Z,14.20
2019-02-27T17:07:25.761Z,13.73
2019-02-27T17:09:48.486Z,12.83
2019-02-27T17:12:15.488Z,12.30
2019-02-27T17:14:42.714Z,11.17
2019-02-27T17:17:10.094Z,11.23
2019-02-27T17:19:37.420Z,11.10
2019-02-27T17:22:04.127Z,11.27
2019-02-27T17:24:31.190Z,11.40
2019-02-27T17:26:58.166Z,11.00
2019-02-27T17:29:26.454Z,9.37
2019-02-27T17:31:55.308Z,9.87
2019-02-27T17:34:19.179Z,9.87
2019-02-27T17:36:46.267Z,9.87
2019-02-27T17:39:13.388Z,9.60
2019-02-27T17:41:41.869Z,10.20
2019-02-27T17:44:10.125Z,9.60
2019-02-27T17:46:37.209Z,9.80
2019-02-27T17:49:04.218Z,9.33
2019-02-27T17:51:31.325Z,8.67
2019-02-27T17:53:59.482Z,9.27
2019-02-27T17:56:26.559Z,9.40
2019-02-27T17:58:53.619Z,9.47
2019-02-27T18:01:24.926Z,9.63
2019-02-27T18:03:48.877Z,9.97
2019-02-27T18:06:15.894Z,10.17
2019-02-27T18:08:42.850Z,9.87
2019-02-27T18:11:24.279Z,10.67
2019-02-27T18:13:51.377Z,9.73
2019-02-27T18:16:19.255Z,9.77
2019-02-27T18:18:46.276Z,9.13
2019-02-27T18:21:13.256Z,9.60
2019-02-27T18:23:40.252Z,9.47
2019-02-27T18:26:07.289Z,9.47
2019-02-27T18:28:34.353Z,10.80
2019-02-27T18:31:01.828Z,9.97
2019-02-27T18:33:28.780Z,9.30
2019-02-27T18:35:55.891Z,10.50
2019-02-27T18:38:27.609Z,10.00
2019-02-27T18:40:50.090Z,10.17
2019-02-27T18:43:17.110Z,10.07
2019-02-27T18:45:44.705Z,11.07
2019-02-27T18:48:12.617Z,11.87
2019-02-27T18:50:40.815Z,16.30
2019-02-27T18:53:13.070Z,13.40
2019-02-27T18:55:36.331Z,13.70
2019-02-27T18:58:03.707Z,13.73
2019-02-27T19:00:33.395Z,14.90
2019-02-27T19:02:58.196Z,11.90
2019-02-27T19:05:25.385Z,12.27
2019-02-27T19:07:55.004Z,11.70
2019-02-27T19:10:23.024Z,12.03
2019-02-27T19:12:51.551Z,13.10
2019-02-27T19:15:19.452Z,11.30
2019-02-27T19:17:46.650Z,10.90
2019-02-27T19:20:15.920Z,10.53
2019-02-27T19:22:43.861Z,12.17
2019-02-27T19:25:10.874Z,11.27
2019-02-27T19:27:38.129Z,11.57
2019-02-27T19:30:07.385Z,11.37
2019-02-27T19:32:34.575Z,11.07
2019-02-27T19:35:01.842Z,13.57
2019-02-27T19:37:28.925Z,12.00
2019-02-27T19:39:58.841Z,12.43
2019-02-27T19:42:25.926Z,10.50
2019-02-27T19:44:52.956Z,12.23
2019-02-27T19:47:19.995Z,11.23
2019-02-27T19:49:47.040Z,10.87
2019-02-27T19:52:14.332Z,11.97
2019-02-27T19:54:41.368Z,11.60
2019-02-27T19:57:09.216Z,10.80
2019-02-27T19:59:36.600Z,12.47
2019-02-27T20:02:04.877Z,13.37
2019-02-27T20:04:32.023Z,14.90
2019-02-27T20:07:02.483Z,11.37
2019-02-27T20:09:29.049Z,10.70
2019-02-27T20:11:57.544Z,13.20
2019-02-27T20:14:26.578Z,11.67
2019-02-27T20:16:55.305Z,14.90
2019-02-27T20:19:28.139Z,11.83
2019-02-27T20:21:50.764Z,12.90
2019-02-27T20:24:32.471Z,12.70
2019-02-27T20:26:58.981Z,17.17
2019-02-27T20:29:28.374Z,27.23
2019-02-27T20:31:56.364Z,23.07
2019-02-27T20:34:23.669Z,20.80
2019-02-27T20:36:51.327Z,20.57
2019-02-27T20:39:18.567Z,20.13
2019-02-27T20:41:45.705Z,20.80
2019-02-27T20:44:13.212Z,19.73
2019-02-27T20:46:40.973Z,19.10
2019-02-27T20:49:10.460Z,17.40
2019-02-27T20:51:39.834Z,17.17
2019-02-27T20:54:02.818Z,17.20
2019-02-27T20:56:29.912Z,14.60
2019-02-27T20:58:57.322Z,14.00
2019-02-27T21:01:25.480Z,14.50
2019-02-27T21:03:52.664Z,12.87
2019-02-27T21:06:19.808Z,11.37
2019-02-27T21:08:47.009Z,12.23
2019-02-27T21:11:14.803Z,12.53
2019-02-27T21:13:43.669Z,12.30
2019-02-27T21:16:10.925Z,11.70
2019-02-27T21:18:38.652Z,12.73
2019-02-27T21:21:06.673Z,10.77
2019-02-27T21:23:34.244Z,10.37
2019-02-27T21:26:02.427Z,10.73
2019-02-27T21:28:29.533Z,11.00
2019-02-27T21:30:56.815Z,11.77
2019-02-27T21:33:23.967Z,9.00
2019-02-27T21:35:52.232Z,10.77
2019-02-27T21:38:19.301Z,9.60
2019-02-27T21:40:47.351Z,10.00
2019-02-27T21:43:14.553Z,9.73
2019-02-27T21:45:41.744Z,10.40
2019-02-27T21:48:09.251Z,10.17
2019-02-27T21:50:39.602Z,11.53
2019-02-27T21:53:04.200Z,9.20
2019-02-27T21:55:31.360Z,6.93
2019-02-27T21:57:59.042Z,6.43
2019-02-27T22:00:26.884Z,7.80
2019-02-27T22:02:54.039Z,7.13
2019-02-27T22:05:21.253Z,9.27
2019-02-27T22:07:48.318Z,7.67
2019-02-27T22:10:19.023Z,7.43
2019-02-27T22:12:43.088Z,7.90
2019-02-27T22:15:14.700Z,7.23
2019-02-27T22:17:41.779Z,8.00
2019-02-27T22:20:09.368Z,7.60
2019-02-27T22:22:41.119Z,7.50
2019-02-27T22:25:03.875Z,6.80
2019-02-27T22:27:31.009Z,8.17
2019-02-27T22:29:59.661Z,8.70
2019-02-27T22:32:25.102Z,7.90
2019-02-27T22:34:52.151Z,9.83
2019-02-27T22:37:19.227Z,5.77
2019-02-27T22:39:46.329Z,6.60
2019-02-27T22:42:14.755Z,7.30
2019-02-27T22:44:40.598Z,7.40
2019-02-27T22:47:07.634Z,7.93
2019-02-27T22:49:34.734Z,7.70
2019-02-27T22:52:01.929Z,7.87
2019-02-27T22:54:29.024Z,7.70
2019-02-27T22:56:56.087Z,7.97
2019-02-27T22:59:23.169Z,7.70
2019-02-27T23:02:08.013Z,16.07
2019-02-27T23:04:35.103Z,6.77
2019-02-27T23:07:02.166Z,6.93
2019-02-27T23:09:29.269Z,7.60
2019-02-27T23:11:56.285Z,7.23
2019-02-27T23:14:23.265Z,7.97
2019-02-27T23:16:50.278Z,7.27
2019-02-27T23:19:17.459Z,7.60
2019-02-27T23:21:44.487Z,6.77
2019-02-27T23:24:11.433Z,6.60
2019-02-27T23:26:38.444Z,6.73
2019-02-27T23:29:05.766Z,6.57
2019-02-27T23:31:32.342Z,7.07
2019-02-27T23:33:59.328Z,7.00
2019-02-27T23:36:26.286Z,7.00
2019-02-27T23:38:53.324Z,8.57
2019-02-27T23:41:23.206Z,8.30
2019-02-27T23:43:47.284Z,11.83
2019-02-27T23:46:15.692Z,7.77
2019-02-27T23:48:41.234Z,6.90
2019-02-27T23:51:08.223Z,6.53
2019-02-27T23:53:35.177Z,6.30
2019-02-27T23:56:02.117Z,6.93
2019-02-27T23:58:29.644Z,6.03
